Time;durP1;ratioP1;P1;durP2;ratioP2;P2;SDS_P1;SDS_P2;PMS_P1;PMS_P2;Temp;Humidity;BMP_temperature;BMP_pressure;BME280_temperature;BME280_humidity;BME280_pressure;Samples;Min_cycle;Max_cycle;Signal;HPM_P1;HPM_P2
2021/06/15 00:00:53;;;;;;;10.45;6.22;;;17.60;99.90;;;;;;4993545;28;20524;-69
2021/06/15 00:03:20;;;;;;;11.40;6.10;;;17.60;99.90;;;;;;4994275;28;20049;-69
2021/06/15 00:05:48;;;;;;;14.07;7.05;;;17.40;99.90;;;;;;4995420;28;20134;-69
2021/06/15 00:08:15;;;;;;;12.07;6.07;;;17.40;99.90;;;;;;4994798;28;20675;-69
2021/06/15 00:10:43;;;;;;;10.25;6.38;;;17.30;99.90;;;;;;4994647;28;20107;-69
2021/06/15 00:13:10;;;;;;;12.02;6.40;;;17.30;99.90;;;;;;4994610;28;20057;-69
2021/06/15 00:15:40;;;;;;;12.02;6.40;;;17.30;99.90;;;;;;4996593;28;20077;-69
2021/06/15 00:18:07;;;;;;;12.30;6.25;;;17.20;99.90;;;;;;4997206;28;20798;-69
2021/06/15 00:20:34;;;;;;;12.10;6.20;;;17.20;99.90;;;;;;4997603;28;20461;-69
2021/06/15 00:23:02;;;;;;;13.88;6.10;;;17.30;99.90;;;;;;4999009;28;20037;-69
2021/06/15 00:25:29;;;;;;;12.52;6.00;;;17.20;99.90;;;;;;4998816;28;20053;-69
2021/06/15 00:27:56;;;;;;;16.33;7.13;;;17.10;99.90;;;;;;4998780;28;20139;-69
2021/06/15 00:30:23;;;;;;;12.40;7.18;;;17.10;99.90;;;;;;4997145;28;20053;-69
2021/06/15 00:32:51;;;;;;;16.02;7.50;;;17.00;99.90;;;;;;4998684;28;20107;-69
2021/06/15 00:35:18;;;;;;;13.57;7.05;;;17.10;99.90;;;;;;4998598;28;20057;-69
2021/06/15 00:37:47;;;;;;;11.13;6.53;;;17.00;99.90;;;;;;4998598;28;20107;-69
2021/06/15 00:40:16;;;;;;;12.13;7.05;;;16.90;99.90;;;;;;4996160;28;20565;-69
2021/06/15 00:42:43;;;;;;;12.20;7.30;;;16.80;99.90;;;;;;4998178;28;20885;-69
2021/06/15 00:45:12;;;;;;;13.43;6.65;;;16.80;99.90;;;;;;4997535;28;20053;-69
2021/06/15 00:47:42;;;;;;;15.57;7.15;;;16.70;99.90;;;;;;4997871;28;20056;-69
2021/06/15 00:50:10;;;;;;;13.45;6.88;;;16.70;99.90;;;;;;4996341;28;20057;-69
2021/06/15 00:52:37;;;;;;;12.23;6.30;;;16.70;99.90;;;;;;4997829;28;20055;-69
2021/06/15 00:55:05;;;;;;;13.38;6.75;;;16.70;99.90;;;;;;4997935;28;20049;-69
2021/06/15 00:57:33;;;;;;;12.68;6.53;;;16.80;99.90;;;;;;4997618;28;20052;-69
2021/06/15 01:00:00;;;;;;;14.18;7.47;;;16.80;99.90;;;;;;4997324;28;20104;-69
2021/06/15 01:02:30;;;;;;;16.02;7.95;;;16.80;99.90;;;;;;4996951;28;20046;-69
2021/06/15 01:04:59;;;;;;;12.45;7.93;;;16.70;99.90;;;;;;4998102;28;20053;-69
2021/06/15 01:07:29;;;;;;;14.07;7.50;;;16.60;99.90;;;;;;4996921;28;20045;-69
2021/06/15 01:10:01;;;;;;;13.27;7.35;;;16.40;99.90;;;;;;4995557;28;20077;-69
2021/06/15 01:12:40;;;;;;;10.40;6.88;;;16.20;99.90;;;;;;4994947;28;20092;-69
2021/06/15 01:15:11;;;;;;;17.27;8.18;;;16.20;99.90;;;;;;4995848;28;20517;-69
2021/06/15 01:17:41;;;;;;;16.40;8.13;;;16.20;99.90;;;;;;4995362;28;20085;-69
2021/06/15 01:20:18;;;;;;;15.93;7.32;;;16.10;99.90;;;;;;4993699;28;20057;-69
2021/06/15 01:23:10;;;;;;;13.77;8.10;;;16.10;99.90;;;;;;4996192;28;20077;-69
2021/06/15 01:26:04;;;;;;;14.27;8.50;;;16.10;99.90;;;;;;4997365;28;20089;-69
2021/06/15 01:28:38;;;;;;;13.77;8.15;;;16.00;99.90;;;;;;4992498;28;20081;-69
2021/06/15 01:31:10;;;;;;;13.80;7.35;;;16.00;99.90;;;;;;4993178;28;20585;-69
2021/06/15 01:33:42;;;;;;;17.90;7.75;;;16.00;99.90;;;;;;4994748;28;20146;-69
2021/06/15 01:36:11;;;;;;;19.25;7.97;;;16.00;99.90;;;;;;4995031;28;20076;-69
2021/06/15 01:38:43;;;;;;;11.55;7.10;;;16.00;99.90;;;;;;4994080;28;20088;-69
2021/06/15 01:41:12;;;;;;;13.70;7.65;;;16.10;99.90;;;;;;4992531;28;20045;-69
2021/06/15 01:43:44;;;;;;;12.23;7.75;;;16.20;99.90;;;;;;4994341;28;20147;-69
2021/06/15 01:46:13;;;;;;;10.90;7.80;;;16.10;99.90;;;;;;4994065;28;20061;-69
2021/06/15 01:48:46;;;;;;;13.15;7.65;;;16.10;99.90;;;;;;4995003;28;20053;-69
2021/06/15 01:51:15;;;;;;;11.50;7.10;;;16.10;99.90;;;;;;4993186;28;20140;-69
2021/06/15 01:53:46;;;;;;;11.88;7.43;;;16.00;99.90;;;;;;4993585;28;20107;-69
2021/06/15 01:56:16;;;;;;;14.75;7.85;;;16.00;99.90;;;;;;4993836;28;20085;-69
2021/06/15 01:58:47;;;;;;;15.43;8.07;;;15.90;99.90;;;;;;4994748;28;20052;-69
2021/06/15 02:01:14;;;;;;;12.65;7.45;;;15.80;99.90;;;;;;4992411;28;20057;-69
2021/06/15 02:03:44;;;;;;;15.88;8.10;;;15.60;99.90;;;;;;4994237;28;20119;-68
2021/06/15 02:06:13;;;;;;;13.15;7.25;;;15.60;99.90;;;;;;4994303;28;20045;-70
2021/06/15 02:08:46;;;;;;;11.93;6.47;;;15.70;99.90;;;;;;4993250;28;20492;-68
2021/06/15 02:11:15;;;;;;;12.45;7.70;;;15.80;99.90;;;;;;4992729;28;20119;-68
2021/06/15 02:13:45;;;;;;;12.27;7.78;;;15.80;99.90;;;;;;4994103;28;20049;-68
2021/06/15 02:16:14;;;;;;;15.63;8.25;;;15.70;99.90;;;;;;4993479;28;20731;-68
2021/06/15 02:18:43;;;;;;;15.73;7.72;;;15.70;99.90;;;;;;4994650;28;20057;-68
2021/06/15 02:21:14;;;;;;;15.27;7.85;;;15.60;99.90;;;;;;4992871;28;20115;-68
2021/06/15 02:23:45;;;;;;;14.50;8.50;;;15.50;99.90;;;;;;4993500;28;20061;-68
2021/06/15 02:26:15;;;;;;;17.08;8.60;;;15.50;99.90;;;;;;4993357;28;20057;-69
2021/06/15 02:28:42;;;;;;;15.43;7.85;;;15.50;99.90;;;;;;4993684;28;20049;-68
2021/06/15 02:31:15;;;;;;;13.75;8.13;;;15.50;99.90;;;;;;4991918;28;20521;-68
2021/06/15 02:33:50;;;;;;;14.98;7.68;;;15.40;99.90;;;;;;4993993;28;20045;-68
2021/06/15 02:36:22;;;;;;;14.00;7.82;;;15.30;99.90;;;;;;4993532;28;20119;-68
2021/06/15 02:38:54;;;;;;;14.27;7.55;;;15.40;99.90;;;;;;4994682;28;20049;-68
2021/06/15 02:41:23;;;;;;;12.98;8.00;;;15.40;99.90;;;;;;4991446;28;20057;-68
2021/06/15 02:43:55;;;;;;;13.55;8.68;;;15.30;99.90;;;;;;4993510;28;20155;-67
2021/06/15 02:46:22;;;;;;;14.63;8.82;;;15.20;99.90;;;;;;4993572;28;20068;-68
2021/06/15 02:48:54;;;;;;;11.98;8.00;;;15.10;99.90;;;;;;4993816;28;20054;-68
2021/06/15 02:51:23;;;;;;;19.10;9.43;;;15.20;99.90;;;;;;4991722;28;20053;-68
2021/06/15 02:53:59;;;;;;;20.02;10.02;;;15.30;99.90;;;;;;4993710;28;20166;-68
2021/06/15 02:56:30;;;;;;;17.92;9.93;;;15.30;99.90;;;;;;4993323;28;21032;-68
2021/06/15 02:58:57;;;;;;;18.67;8.73;;;15.30;99.90;;;;;;4993247;28;20135;-68
2021/06/15 03:01:24;;;;;;;15.02;7.38;;;15.30;99.90;;;;;;4991794;28;20467;-68
2021/06/15 03:03:53;;;;;;;16.38;7.47;;;15.30;99.90;;;;;;4994081;28;20485;-67
2021/06/15 03:06:20;;;;;;;17.05;8.05;;;15.30;99.90;;;;;;4992712;28;20178;-68
2021/06/15 03:08:47;;;;;;;13.38;6.55;;;15.30;99.90;;;;;;4993946;28;20495;-68
2021/06/15 03:11:17;;;;;;;15.82;6.80;;;15.20;99.90;;;;;;4991846;28;20072;-68
2021/06/15 03:13:49;;;;;;;13.93;6.50;;;15.20;99.90;;;;;;4993610;28;20506;-68
2021/06/15 03:16:19;;;;;;;12.23;7.03;;;15.20;99.90;;;;;;4993677;28;20107;-68
2021/06/15 03:18:57;;;;;;;11.75;6.38;;;15.20;99.90;;;;;;4994904;28;20049;-68
2021/06/15 03:21:27;;;;;;;12.18;7.00;;;15.20;99.90;;;;;;4995486;28;20061;-68
2021/06/15 03:23:58;;;;;;;13.13;7.32;;;15.10;99.90;;;;;;4997120;28;20065;-68
2021/06/15 03:26:28;;;;;;;14.48;7.38;;;15.10;99.90;;;;;;4996687;28;20155;-68
2021/06/15 03:28:58;;;;;;;13.93;7.25;;;15.10;99.90;;;;;;4997706;28;20118;-68
2021/06/15 03:31:27;;;;;;;12.20;7.22;;;15.10;99.90;;;;;;4994420;28;20156;-68
2021/06/15 03:33:58;;;;;;;13.23;6.50;;;15.10;99.90;;;;;;4997578;28;20108;-68
2021/06/15 03:36:26;;;;;;;14.45;6.90;;;15.10;99.90;;;;;;4997407;28;20120;-68
2021/06/15 03:38:56;;;;;;;13.68;7.32;;;15.20;99.90;;;;;;4997513;28;20068;-67
2021/06/15 03:41:24;;;;;;;15.20;8.13;;;15.10;99.90;;;;;;4995400;28;20096;-68
2021/06/15 03:43:55;;;;;;;17.13;7.53;;;15.10;99.90;;;;;;4996928;28;20627;-68
2021/06/15 03:46:24;;;;;;;11.48;6.38;;;15.20;99.90;;;;;;4996820;28;20132;-68
2021/06/15 03:48:53;;;;;;;18.77;8.35;;;15.10;99.90;;;;;;4996496;28;20053;-68
2021/06/15 03:51:27;;;;;;;13.68;6.93;;;15.00;99.90;;;;;;4995286;28;20054;-67
2021/06/15 03:54:05;;;;;;;13.63;7.32;;;15.10;99.90;;;;;;4996791;28;20045;-68
2021/06/15 03:56:34;;;;;;;21.75;10.32;;;15.10;99.90;;;;;;4997572;28;20053;-68
2021/06/15 03:59:02;;;;;;;19.10;9.18;;;15.00;99.90;;;;;;4997328;28;20502;-68
2021/06/15 04:01:33;;;;;;;25.50;10.57;;;15.00;99.90;;;;;;4995958;28;20057;-68
2021/06/15 04:04:04;;;;;;;21.70;9.95;;;15.10;99.90;;;;;;4997404;28;20578;-68
2021/06/15 04:06:35;;;;;;;19.88;10.02;;;15.10;99.90;;;;;;4996269;28;20140;-68
2021/06/15 04:09:04;;;;;;;22.80;10.15;;;15.20;99.90;;;;;;4997382;28;20076;-68
2021/06/15 04:11:35;;;;;;;16.58;9.10;;;15.30;99.90;;;;;;4995419;28;20144;-68
2021/06/15 04:14:04;;;;;;;20.60;9.30;;;15.30;99.90;;;;;;4996680;28;20132;-68
2021/06/15 04:16:31;;;;;;;17.35;9.02;;;15.40;99.90;;;;;;4996695;28;20053;-69
2021/06/15 04:18:59;;;;;;;17.15;9.10;;;15.40;99.90;;;;;;4996665;28;20053;-69
2021/06/15 04:21:26;;;;;;;17.60;9.23;;;15.50;99.90;;;;;;4995030;28;20090;-68
2021/06/15 04:23:58;;;;;;;20.52;9.10;;;15.50;99.90;;;;;;4997554;28;20049;-69
2021/06/15 04:26:25;;;;;;;23.48;10.73;;;15.40;99.90;;;;;;4997397;28;20568;-68
2021/06/15 04:28:53;;;;;;;18.55;8.77;;;15.40;99.90;;;;;;4997474;28;20409;-68
2021/06/15 04:31:24;;;;;;;19.38;9.50;;;15.50;99.90;;;;;;4993557;28;20524;-68
2021/06/15 04:33:52;;;;;;;25.38;10.68;;;15.50;99.90;;;;;;4995258;28;20146;-68
2021/06/15 04:36:20;;;;;;;17.75;9.77;;;15.60;99.90;;;;;;4995964;28;20095;-68
2021/06/15 04:38:52;;;;;;;17.85;10.05;;;15.60;99.90;;;;;;4993048;28;20088;-68
2021/06/15 04:41:26;;;;;;;16.48;10.20;;;15.70;99.90;;;;;;4992779;28;20056;-69
2021/06/15 04:43:57;;;;;;;21.90;9.65;;;15.70;99.90;;;;;;4995341;28;20132;-69
2021/06/15 04:46:27;;;;;;;16.95;10.25;;;15.70;99.90;;;;;;4993637;28;20092;-68
2021/06/15 04:49:00;;;;;;;16.73;9.95;;;15.80;99.90;;;;;;4993846;28;20041;-69
2021/06/15 04:51:28;;;;;;;18.92;9.40;;;15.80;99.90;;;;;;4992812;28;20230;-69
2021/06/15 04:53:58;;;;;;;19.83;9.73;;;15.90;99.90;;;;;;4991515;28;20049;-70
2021/06/15 04:56:29;;;;;;;20.48;11.10;;;16.00;99.90;;;;;;4993064;28;20136;-68
2021/06/15 04:58:57;;;;;;;17.83;10.13;;;16.00;99.90;;;;;;4994854;28;20049;-70
2021/06/15 05:01:24;;;;;;;18.90;10.95;;;16.10;99.90;;;;;;4993604;28;21041;-69
2021/06/15 05:03:52;;;;;;;20.75;11.60;;;16.10;99.90;;;;;;4995087;28;20150;-68
2021/06/15 05:06:21;;;;;;;18.40;11.15;;;16.20;99.90;;;;;;4993023;28;20089;-68
2021/06/15 05:08:54;;;;;;;17.70;10.90;;;16.20;99.90;;;;;;4999974;28;20502;-68
2021/06/15 05:11:22;;;;;;;21.27;10.68;;;16.20;99.90;;;;;;4995599;28;20164;-69
2021/06/15 05:13:54;;;;;;;16.25;9.77;;;16.30;99.90;;;;;;4995243;28;20088;-67
2021/06/15 05:16:23;;;;;;;20.48;9.88;;;16.30;99.90;;;;;;5003105;28;20061;-67
2021/06/15 05:18:50;;;;;;;19.77;10.45;;;16.30;99.90;;;;;;5003926;28;20137;-67
2021/06/15 05:21:22;;;;;;;16.60;10.68;;;16.20;99.90;;;;;;5001679;28;20541;-67
2021/06/15 05:23:56;;;;;;;19.33;10.68;;;16.30;99.90;;;;;;5003083;28;20057;-67
2021/06/15 05:26:25;;;;;;;20.88;11.18;;;16.40;99.90;;;;;;5001240;28;20046;-67
2021/06/15 05:28:53;;;;;;;19.83;11.88;;;16.40;99.90;;;;;;4996007;28;20557;-67
2021/06/15 05:31:20;;;;;;;19.45;11.48;;;16.50;99.90;;;;;;4993258;28;20076;-68
2021/06/15 05:33:47;;;;;;;23.27;11.20;;;16.60;99.90;;;;;;4998653;28;20425;-67
2021/06/15 05:36:14;;;;;;;18.85;11.10;;;16.60;99.90;;;;;;5000811;28;20670;-67
2021/06/15 05:38:43;;;;;;;18.45;10.50;;;16.70;99.90;;;;;;5001383;28;20056;-67
2021/06/15 05:41:10;;;;;;;17.98;11.02;;;16.80;99.90;;;;;;5004140;28;20353;-67
2021/06/15 05:43:37;;;;;;;17.92;10.77;;;16.90;99.90;;;;;;5004144;28;20621;-67
2021/06/15 05:46:06;;;;;;;17.55;10.25;;;17.00;99.90;;;;;;5003861;28;20445;-67
2021/06/15 05:48:33;;;;;;;19.33;10.57;;;17.00;99.90;;;;;;5002135;28;20053;-67
2021/06/15 05:51:00;;;;;;;16.00;9.25;;;17.20;99.90;;;;;;5002117;28;20636;-67
2021/06/15 05:53:27;;;;;;;24.75;10.75;;;17.20;99.90;;;;;;5003372;28;20064;-67
2021/06/15 05:55:56;;;;;;;17.73;10.57;;;17.20;99.90;;;;;;5003247;28;20429;-67
2021/06/15 05:58:23;;;;;;;18.00;10.10;;;17.30;99.90;;;;;;5001510;28;20576;-67
2021/06/15 06:00:50;;;;;;;16.50;9.75;;;17.40;99.90;;;;;;4997026;28;20077;-67
2021/06/15 06:03:22;;;;;;;16.17;9.02;;;17.60;99.90;;;;;;4999937;28;20574;-67
2021/06/15 06:08:34;;;;;;;21.42;11.13;;;17.80;99.90;;;;;;5005694;28;20080;-67
2021/06/15 06:11:01;;;;;;;22.02;10.13;;;17.90;99.90;;;;;;5005671;28;20045;-65
2021/06/15 06:13:28;;;;;;;16.92;9.48;;;17.90;99.90;;;;;;5006985;28;20143;-67
2021/06/15 06:15:59;;;;;;;14.82;9.40;;;18.10;99.90;;;;;;5004445;28;20136;-68
2021/06/15 06:18:28;;;;;;;17.92;9.43;;;18.20;99.90;;;;;;4995064;28;20172;-67
2021/06/15 06:20:55;;;;;;;15.73;9.07;;;18.40;99.90;;;;;;4993179;28;20794;-68
2021/06/15 06:23:22;;;;;;;18.98;9.60;;;18.50;99.90;;;;;;4992107;28;20071;-69
2021/06/15 06:25:49;;;;;;;18.73;8.20;;;18.60;99.90;;;;;;4991085;28;20735;-65
2021/06/15 06:28:16;;;;;;;21.20;9.18;;;18.80;99.90;;;;;;4993428;28;20100;-67
2021/06/15 06:30:43;;;;;;;20.60;9.35;;;18.90;99.90;;;;;;4999194;28;20133;-66
2021/06/15 06:33:10;;;;;;;16.65;9.02;;;18.90;99.90;;;;;;4999567;28;20091;-67
2021/06/15 06:35:38;;;;;;;16.42;8.60;;;19.00;99.90;;;;;;5000274;28;20134;-66
2021/06/15 06:38:05;;;;;;;18.45;10.05;;;19.10;99.90;;;;;;5000710;28;20053;-67
2021/06/15 06:40:32;;;;;;;17.00;9.23;;;19.20;99.90;;;;;;5000232;28;20089;-66
2021/06/15 06:42:59;;;;;;;17.35;9.45;;;19.30;99.90;;;;;;4998859;28;20058;-66
2021/06/15 06:45:27;;;;;;;13.25;6.82;;;19.50;99.90;;;;;;4999302;28;20131;-67
2021/06/15 06:47:57;;;;;;;15.45;7.18;;;19.60;99.90;;;;;;4999051;28;20071;-68
2021/06/15 06:50:24;;;;;;;13.57;7.97;;;19.60;99.90;;;;;;4998594;28;20049;-66
2021/06/15 06:52:52;;;;;;;16.50;7.40;;;19.80;99.90;;;;;;4999500;28;20057;-66
2021/06/15 06:55:20;;;;;;;13.13;6.55;;;19.90;99.90;;;;;;5001332;28;20135;-67
2021/06/15 06:57:47;;;;;;;13.98;6.93;;;20.00;99.90;;;;;;5004963;28;20558;-66
2021/06/15 07:00:16;;;;;;;16.42;7.07;;;20.10;99.90;;;;;;5002704;28;20075;-66
2021/06/15 07:02:43;;;;;;;11.88;6.97;;;20.20;99.90;;;;;;5004271;28;20107;-66
2021/06/15 07:05:12;;;;;;;12.45;6.32;;;20.40;99.90;;;;;;5004233;28;20049;-66
2021/06/15 07:07:39;;;;;;;13.77;6.22;;;20.50;99.90;;;;;;5004249;28;20057;-66
2021/06/15 07:10:08;;;;;;;9.00;5.72;;;20.60;99.90;;;;;;5002977;28;20049;-66
2021/06/15 07:12:35;;;;;;;20.33;6.50;;;20.70;99.90;;;;;;5004474;28;20045;-71
2021/06/15 07:15:02;;;;;;;13.18;6.60;;;20.80;99.90;;;;;;5005446;28;20085;-71
2021/06/15 07:17:29;;;;;;;14.65;7.18;;;21.00;99.90;;;;;;5005504;28;20050;-71
2021/06/15 07:19:56;;;;;;;12.30;6.80;;;21.20;99.90;;;;;;5005408;28;20088;-70
2021/06/15 07:22:23;;;;;;;11.93;6.53;;;21.20;99.90;;;;;;5002972;28;20085;-70
2021/06/15 07:24:50;;;;;;;10.55;5.93;;;21.30;99.90;;;;;;5004339;28;20140;-69
2021/06/15 07:27:19;;;;;;;10.43;5.90;;;21.40;99.90;;;;;;5002294;28;20129;-69
2021/06/15 07:29:46;;;;;;;9.88;6.10;;;21.60;99.90;;;;;;5003111;28;20062;-67
2021/06/15 07:32:13;;;;;;;14.15;6.72;;;21.70;99.90;;;;;;5003623;28;20041;-65
2021/06/15 07:34:55;;;;;;;9.43;5.63;;;21.80;99.90;;;;;;5007246;28;20092;-66
2021/06/15 07:37:23;;;;;;;14.02;6.72;;;22.00;99.90;;;;;;4999213;28;20045;-66
2021/06/15 07:39:50;;;;;;;12.70;7.20;;;22.10;99.90;;;;;;5000539;28;20045;-66
2021/06/15 07:42:19;;;;;;;12.25;6.03;;;22.20;99.90;;;;;;5000046;28;20140;-65
2021/06/15 07:44:47;;;;;;;17.38;6.25;;;22.40;99.90;;;;;;4998881;28;20104;-65
2021/06/15 07:47:14;;;;;;;14.52;6.50;;;22.50;99.90;;;;;;4997795;28;20133;-65
2021/06/15 07:49:41;;;;;;;10.48;6.47;;;22.70;99.90;;;;;;4997210;28;20180;-66
2021/06/15 07:52:08;;;;;;;10.68;5.65;;;22.70;99.90;;;;;;4999052;28;20104;-65
2021/06/15 07:54:35;;;;;;;9.40;5.63;;;22.90;99.90;;;;;;4997111;28;20617;-66
2021/06/15 07:57:03;;;;;;;12.32;5.50;;;23.00;99.90;;;;;;4995142;28;20542;-65
2021/06/15 07:59:31;;;;;;;12.40;4.78;;;23.40;99.90;;;;;;4995854;28;20179;-65
2021/06/15 08:01:58;;;;;;;10.43;5.47;;;23.50;99.90;;;;;;4997193;28;20053;-66
2021/06/15 08:04:25;;;;;;;11.73;5.05;;;23.60;99.90;;;;;;4998006;28;20104;-65
2021/06/15 08:06:52;;;;;;;13.30;5.53;;;23.70;99.90;;;;;;4996467;28;20132;-65
2021/06/15 08:09:19;;;;;;;15.35;5.00;;;23.80;99.90;;;;;;4996969;28;20072;-65
2021/06/15 08:11:47;;;;;;;12.15;5.15;;;24.10;99.90;;;;;;4995359;28;20138;-65
2021/06/15 08:14:14;;;;;;;10.77;5.30;;;24.30;99.90;;;;;;4997400;28;20103;-65
2021/06/15 08:16:42;;;;;;;9.18;4.53;;;24.60;99.90;;;;;;4995159;28;20136;-65
2021/06/15 08:19:09;;;;;;;9.65;5.03;;;24.60;99.90;;;;;;4997168;28;20053;-65
2021/06/15 08:21:36;;;;;;;8.50;4.50;;;24.80;99.90;;;;;;4996862;28;20453;-66
2021/06/15 08:24:04;;;;;;;12.68;5.28;;;24.90;99.90;;;;;;5000536;28;20049;-66
2021/06/15 08:26:31;;;;;;;11.63;5.50;;;25.20;99.90;;;;;;5001046;28;20107;-65
2021/06/15 08:28:58;;;;;;;11.23;4.72;;;25.30;99.90;;;;;;5001304;28;20053;-65
2021/06/15 08:31:25;;;;;;;8.43;4.85;;;25.20;99.90;;;;;;4996905;28;20077;-66
2021/06/15 08:33:53;;;;;;;12.93;5.30;;;25.50;99.90;;;;;;4998707;28;20099;-65
2021/06/15 08:36:20;;;;;;;14.80;4.82;;;25.80;99.90;;;;;;4997193;28;20131;-66
2021/06/15 08:38:47;;;;;;;15.68;5.78;;;25.90;99.90;;;;;;5003646;28;20045;-65
2021/06/15 08:41:18;;;;;;;11.65;5.47;;;26.30;99.90;;;;;;4999989;28;20415;-65
2021/06/15 08:43:45;;;;;;;14.27;6.40;;;26.50;99.90;;;;;;4998323;28;20085;-65
2021/06/15 08:46:12;;;;;;;10.98;5.20;;;26.70;99.90;;;;;;5002835;28;20665;-65
2021/06/15 08:48:39;;;;;;;13.20;5.93;;;27.10;99.90;;;;;;5006448;28;20072;-65
2021/06/15 08:51:08;;;;;;;13.50;6.72;;;27.30;99.90;;;;;;5006779;28;20081;-65
2021/06/15 08:53:35;;;;;;;16.02;6.53;;;27.20;99.90;;;;;;5004253;28;20518;-65
2021/06/15 08:56:11;;;;;;;14.65;6.22;;;27.60;99.90;;;;;;5004801;28;20053;-66
2021/06/15 08:58:46;;;;;;;11.10;5.67;;;28.00;99.90;;;;;;5005438;28;20142;-65
2021/06/15 09:01:13;;;;;;;11.50;6.50;;;28.40;99.90;;;;;;5005101;28;20303;-65
2021/06/15 09:03:40;;;;;;;13.57;6.82;;;28.60;99.90;;;;;;5006108;28;20053;-66
2021/06/15 09:06:09;;;;;;;19.88;6.18;;;28.60;99.90;;;;;;4998973;28;20146;-66
2021/06/15 09:08:52;;;;;;;8.18;4.40;;;29.10;99.90;;;;;;5004348;28;20362;-65
2021/06/15 09:11:20;;;;;;;12.82;4.43;;;29.50;99.90;;;;;;5003914;28;20085;-65
2021/06/15 09:13:48;;;;;;;10.00;4.32;;;29.90;99.60;;;;;;5005417;28;20462;-66
2021/06/15 09:16:25;;;;;;;9.57;4.38;;;30.20;97.80;;;;;;5005097;28;20462;-66
2021/06/15 09:18:54;;;;;;;11.38;5.05;;;30.40;96.90;;;;;;5006531;28;20104;-66
2021/06/15 09:21:44;;;;;;;13.98;6.32;;;30.80;96.30;;;;;;5004711;28;20284;-66
2021/06/15 09:24:13;;;;;;;16.95;5.88;;;31.40;96.70;;;;;;5005258;28;20054;-66
2021/06/15 09:27:00;;;;;;;12.95;6.10;;;31.40;95.80;;;;;;4998686;28;20148;-66
2021/06/15 09:29:41;;;;;;;11.00;5.72;;;31.00;95.60;;;;;;5005479;28;20096;-66
2021/06/15 09:32:10;;;;;;;13.82;5.60;;;31.20;95.00;;;;;;5006442;28;20052;-65
2021/06/15 09:34:45;;;;;;;13.00;5.75;;;30.80;94.90;;;;;;5006251;28;20077;-66
2021/06/15 09:37:14;;;;;;;10.23;5.13;;;30.50;95.00;;;;;;5001583;28;20667;-66
2021/06/15 09:39:41;;;;;;;10.57;4.90;;;30.10;93.90;;;;;;5002236;28;20080;-66
2021/06/15 09:42:11;;;;;;;10.80;4.47;;;30.60;92.50;;;;;;4996995;28;20495;-65
2021/06/15 09:44:39;;;;;;;10.30;5.03;;;30.90;89.30;;;;;;5003049;28;20053;-68
2021/06/15 09:47:08;;;;;;;11.43;4.40;;;31.20;90.10;;;;;;5003157;28;20068;-68
2021/06/15 09:49:37;;;;;;;12.43;4.80;;;31.20;90.90;;;;;;5001215;28;20053;-68
2021/06/15 09:52:18;;;;;;;7.55;3.60;;;32.10;90.80;;;;;;5002614;28;20054;-66
2021/06/15 09:54:48;;;;;;;7.05;2.80;;;32.70;86.60;;;;;;5004595;28;20085;-66
2021/06/15 09:57:21;;;;;;;7.40;3.00;;;33.10;80.20;;;;;;4998049;28;20057;-68
2021/06/15 10:00:03;;;;;;;10.15;3.85;;;33.60;77.70;;;;;;5008693;28;20146;-68
2021/06/15 10:02:31;;;;;;;5.22;3.05;;;33.90;75.30;;;;;;5008532;28;21039;-66
2021/06/15 10:04:58;;;;;;;9.10;3.35;;;33.20;67.50;;;;;;5008698;28;20127;-68
2021/06/15 10:07:28;;;;;;;11.63;4.30;;;33.40;73.90;;;;;;5004830;28;20134;-66
2021/06/15 10:09:56;;;;;;;10.63;3.75;;;33.40;73.70;;;;;;5004377;28;20111;-68
2021/06/15 10:12:24;;;;;;;13.10;4.10;;;32.50;72.40;;;;;;5006402;28;20113;-66
2021/06/15 10:14:54;;;;;;;9.23;3.15;;;32.80;72.30;;;;;;5007092;28;20045;-66
2021/06/15 10:17:21;;;;;;;8.77;3.20;;;33.30;68.60;;;;;;4999175;28;20053;-68
2021/06/15 10:19:54;;;;;;;9.65;3.85;;;33.50;70.70;;;;;;5003010;28;20050;-68
2021/06/15 10:22:22;;;;;;;6.85;3.38;;;34.20;69.70;;;;;;5005952;28;20053;-68
2021/06/15 10:24:51;;;;;;;13.15;4.03;;;34.20;68.40;;;;;;5005821;28;20081;-67
2021/06/15 10:27:18;;;;;;;6.07;2.97;;;34.10;65.40;;;;;;5005436;28;20118;-68
2021/06/15 10:29:51;;;;;;;7.60;2.75;;;34.40;63.10;;;;;;5002557;28;20045;-67
2021/06/15 10:32:19;;;;;;;5.38;2.83;;;34.50;61.50;;;;;;5002212;28;20049;-68
2021/06/15 10:34:57;;;;;;;5.45;2.20;;;34.90;61.40;;;;;;5004754;28;20192;-68
2021/06/15 10:37:45;;;;;;;16.00;3.15;;;35.40;58.70;;;;;;5000801;28;20601;-68
2021/06/15 10:40:36;;;;;;;5.60;2.60;;;34.70;58.70;;;;;;4998838;28;20141;-66
2021/06/15 10:43:15;;;;;;;5.55;2.42;;;34.40;60.10;;;;;;5006943;28;20155;-66
2021/06/15 10:45:43;;;;;;;6.80;2.85;;;35.10;59.20;;;;;;5006308;28;20046;-66
2021/06/15 10:48:39;;;;;;;7.75;2.88;;;35.50;59.90;;;;;;5004802;28;20045;-66
2021/06/15 10:51:23;;;;;;;7.37;3.37;;;36.00;58.50;;;;;;5003436;28;20163;-66
2021/06/15 10:53:51;;;;;;;9.07;2.92;;;36.20;58.40;;;;;;5004053;28;20284;-65
2021/06/15 10:56:22;;;;;;;6.47;3.03;;;36.40;55.90;;;;;;4999444;28;20042;-66
2021/06/15 10:59:04;;;;;;;7.40;2.75;;;35.80;55.60;;;;;;5003466;28;20065;-66
2021/06/15 11:01:32;;;;;;;5.32;2.95;;;36.20;56.20;;;;;;5002660;28;20136;-66
2021/06/15 11:04:00;;;;;;;6.40;3.22;;;36.70;55.50;;;;;;5003404;28;20045;-66
2021/06/15 11:06:47;;;;;;;7.07;3.25;;;36.00;54.40;;;;;;5005397;28;20057;-66
2021/06/15 11:09:21;;;;;;;6.97;3.15;;;35.50;54.80;;;;;;5001735;28;20107;-66
2021/06/15 11:12:10;;;;;;;8.52;2.80;;;34.70;55.40;;;;;;4996192;28;20154;-67
2021/06/15 11:14:37;;;;;;;4.90;2.80;;;34.90;56.80;;;;;;5002162;28;20438;-66
2021/06/15 11:17:08;;;;;;;6.30;3.10;;;34.40;57.50;;;;;;5000408;28;20045;-66
2021/06/15 11:19:38;;;;;;;5.72;2.90;;;35.50;57.30;;;;;;4997802;28;20042;-66
2021/06/15 11:22:12;;;;;;;8.77;2.67;;;35.70;55.50;;;;;;5001237;28;20058;-65
2021/06/15 11:24:48;;;;;;;6.55;2.70;;;35.50;56.60;;;;;;4995887;28;20575;-66
2021/06/15 11:27:31;;;;;;;6.30;2.97;;;35.10;55.80;;;;;;4999489;28;20410;-66
2021/06/15 11:30:19;;;;;;;7.88;2.83;;;34.90;55.70;;;;;;5000968;28;20317;-66
2021/06/15 11:33:03;;;;;;;10.10;2.75;;;35.40;55.30;;;;;;5000459;28;20057;-66
2021/06/15 11:35:32;;;;;;;8.20;3.25;;;35.20;57.20;;;;;;5000532;28;20041;-66
2021/06/15 11:38:05;;;;;;;6.97;2.92;;;35.50;54.30;;;;;;5001508;28;20092;-66
2021/06/15 11:40:34;;;;;;;8.02;2.75;;;35.40;54.10;;;;;;5005232;28;20087;-66
2021/06/15 11:45:55;;;;;;;8.18;3.17;;;35.40;54.50;;;;;;5101272;27;20208;-68
2021/06/15 11:48:31;;;;;;;9.82;3.17;;;34.80;56.40;;;;;;5055295;28;20059;-68
2021/06/15 11:50:59;;;;;;;5.43;2.75;;;34.20;56.60;;;;;;5054695;28;20149;-68
2021/06/15 11:53:29;;;;;;;5.50;2.88;;;34.00;55.40;;;;;;5055840;28;20512;-68
2021/06/15 11:55:58;;;;;;;6.65;2.55;;;34.00;55.10;;;;;;5054809;28;20045;-68
2021/06/15 11:58:27;;;;;;;6.55;2.38;;;33.70;54.00;;;;;;5055672;28;20157;-67
2021/06/15 12:00:57;;;;;;;6.72;2.33;;;33.90;54.20;;;;;;5054789;28;20072;-68
2021/06/15 12:03:26;;;;;;;6.40;2.50;;;33.50;56.50;;;;;;5056691;28;20045;-67
2021/06/15 12:05:54;;;;;;;6.85;2.67;;;33.40;56.10;;;;;;5054719;28;20044;-67
2021/06/15 12:08:21;;;;;;;8.38;2.80;;;34.90;55.70;;;;;;5055311;28;20080;-67
2021/06/15 12:10:50;;;;;;;8.05;3.47;;;36.00;56.20;;;;;;5058022;28;20286;-67
2021/06/15 12:13:19;;;;;;;7.55;3.03;;;37.00;55.70;;;;;;5057247;28;20044;-68
2021/06/15 12:16:01;;;;;;;5.85;2.90;;;37.50;52.80;;;;;;5057361;28;20138;-67
2021/06/15 12:18:40;;;;;;;7.32;2.88;;;37.30;53.60;;;;;;5055230;28;20044;-67
2021/06/15 12:21:10;;;;;;;7.05;2.83;;;37.70;52.40;;;;;;5055138;28;20959;-67
2021/06/15 12:23:40;;;;;;;4.78;2.92;;;37.60;52.20;;;;;;5056019;28;20048;-68
2021/06/15 12:26:14;;;;;;;8.82;2.65;;;38.00;52.20;;;;;;5056759;28;20076;-67
2021/06/15 12:28:42;;;;;;;7.75;3.17;;;37.40;52.90;;;;;;5058333;28;20055;-68
2021/06/15 12:31:17;;;;;;;6.00;2.70;;;38.00;52.80;;;;;;5056448;28;20081;-67
2021/06/15 12:33:46;;;;;;;7.60;3.28;;;37.20;53.60;;;;;;5056662;28;20084;-67
2021/06/15 12:36:15;;;;;;;9.57;3.20;;;36.80;53.60;;;;;;5057477;28;20036;-67
2021/06/15 12:38:43;;;;;;;4.43;2.55;;;37.00;53.30;;;;;;5057279;28;20056;-67
2021/06/15 12:41:13;;;;;;;6.13;2.60;;;36.80;53.50;;;;;;5057300;28;20496;-67
2021/06/15 12:43:42;;;;;;;5.78;2.88;;;37.50;53.00;;;;;;5051970;28;20095;-67
2021/06/15 12:46:26;;;;;;;8.45;2.80;;;37.40;52.80;;;;;;5051499;28;20140;-67
2021/06/15 12:48:55;;;;;;;8.70;2.97;;;37.70;52.40;;;;;;5055711;28;20558;-67
2021/06/15 12:51:26;;;;;;;5.55;2.67;;;37.80;52.30;;;;;;5053777;28;20044;-68
2021/06/15 12:53:53;;;;;;;6.95;2.60;;;38.10;51.30;;;;;;5053098;28;20049;-67
2021/06/15 12:56:23;;;;;;;8.30;2.92;;;38.10;52.80;;;;;;5046504;28;20148;-68
2021/06/15 12:58:52;;;;;;;7.20;2.65;;;37.70;52.90;;;;;;5039109;28;20513;-67